• Join FlightAware (Why Join?)
  • Login
  • US Flag 
Gobble Gobble! 
09:58AM EST


 

Airport Tracker/Info


-or-


 

Live Flight TrackerFlight Track Log ✈ SWA4108 ✈ 12-Feb-2014 ✈ KSFO - KLAX

Flight Track Log - Related Links

Times and Time Zones

All times are in EST time to prevent confusion due to time zone crossing. See the SWA4108 flight status page for this flight to view local times or setup timezone preferences in your user account.

Time Position Orientation Groundspeed Altitude Reporting Facility
EST Latitude Longitude Course Direction KTS MPH feet Rate Location/Type
12:41AM 37.6667 -122.3667 345° North 182 209 1,900  Level Northern Cal TRACON
12:41AM 37.7167 -122.3833 345° North 224 258 4,600 3,000 Climbing Northern Cal TRACON
12:43AM 37.6667 -122.4000 195° South 275 316 8,000 3,120 Climbing Northern Cal TRACON
12:43AM 37.6000 -122.3333 142° Southeast 320 368 10,900 3,000 Climbing Northern Cal TRACON
12:44AM 37.5739 -122.2992 134° Southeast 316 364 12,200 2,940 Climbing Oakland Center
12:45AM 37.5039 -122.2103 135° Southeast 347 399 15,400 2,700 Climbing Oakland Center
12:46AM 37.4264 -122.1136 135° Southeast 380 437 17,700 2,700 Climbing Oakland Center
12:47AM 37.3453 -122.0136 136° Southeast 402 463 20,900 2,580 Climbing Oakland Center
12:48AM 37.2622 -121.9111 135° Southeast 413 475 23,000 2,460 Climbing Oakland Center
12:49AM 37.1578 -121.7822 135° Southeast 441 507 25,900 2,280 Climbing Oakland Center
12:50AM 37.0825 -121.6914 136° Southeast 450 518 27,600 1,800 Climbing Oakland Center
12:51AM 36.9869 -121.5833 138° Southeast 459 528 29,600 2,040 Climbing Oakland Center
12:52AM 36.8792 -121.4414 133° Southeast 468 539 31,800 1,860 Climbing Oakland Center
12:53AM 36.7803 -121.3269 137° Southeast 478 550 33,500 1,740 Climbing Oakland Center
12:54AM 36.6844 -121.2139 137° Southeast 476 548 35,400 1,680 Climbing Oakland Center
12:55AM 36.5917 -121.0975 135° Southeast 473 544 37,000 780 Climbing Oakland Center
12:56AM 36.4967 -120.9861 137° Southeast 471 542 37,000  Level Oakland Center
12:57AM 36.4028 -120.8725 136° Southeast 470 541 37,000  Level Oakland Center
12:58AM 36.3094 -120.7600 136° Southeast 469 540 37,000  Level Oakland Center
12:59AM 36.2139 -120.6489 137° Southeast 469 540 37,000  Level Oakland Center
01:00AM 36.1208 -120.5367 136° Southeast 468 539 37,000  Level Oakland Center
01:01AM 36.0269 -120.4236 136° Southeast 468 539 37,000  Level Oakland Center
01:02AM 35.9322 -120.3128 137° Southeast 469 540 37,000  Level Oakland Center
01:03AM 35.8378 -120.2025 137° Southeast 465 535 37,000  Level Oakland Center
01:04AM 35.7442 -120.0903 136° Southeast 465 535 37,000  Level Oakland Center
01:05AM 35.6492 -119.9808 137° Southeast 465 535 37,000  Level Oakland Center
01:06AM 35.5439 -119.8889 145° Southeast 460 529 37,000 -180 Level Oakland Center
01:07AM 35.4175 -119.7797 145° Southeast 458 527 36,700 -540 Descending Los Angeles Center
01:09AM 35.3114 -119.6894 145° Southeast 461 531 35,700 -960 Descending Los Angeles Center
01:10AM 35.1853 -119.5808 145° Southeast 460 529 34,600 -1,080 Descending Los Angeles Center
01:11AM 35.0808 -119.4922 145° Southeast 459 528 33,600 -960 Descending Los Angeles Center
01:12AM 34.9756 -119.4025 145° Southeast 459 528 32,700 -1,800 Descending Los Angeles Center
01:13AM 34.8686 -119.3131 146° Southeast 463 533 30,000 -2,820 Descending Los Angeles Center
01:14AM 34.7622 -119.2231 145° Southeast 465 535 27,000 -2,700 Descending Los Angeles Center
01:15AM 34.6414 -119.1192 145° Southeast 447 514 24,000 -2,700 Descending Los Angeles Center
01:16AM 34.5264 -119.0228 145° Southeast 423 487 21,000 -2,700 Descending Los Angeles Center
01:17AM 34.4336 -118.9450 145° Southeast 409 471 18,600 -2,400 Descending Los Angeles Center
01:18AM 34.3422 -118.8750 148° Southeast 387 445 16,200 -2,460 Descending Los Angeles Center
01:19AM 34.2406 -118.8386 164° South 379 436 13,700 -2,220 Descending Los Angeles Center
01:20AM 34.1692 -118.7572 137° Southeast 365 420 11,800 -1,860 Descending Los Angeles Center
01:21AM 34.1169 -118.6586 123° Southeast 351 404 10,000 -1,440 Descending Los Angeles Center
01:22AM 34.0639 -118.5583 123° Southeast 324 373 8,900 -1,260 Descending Los Angeles Center
01:23AM 34.0192 -118.4728 122° Southeast 305 351 7,500 -1,140 Descending Los Angeles Center
01:24AM 34.0206 -118.3953 89° East 273 314 6,600 -900 Descending Los Angeles Center
01:25AM 34.0275 -118.3275 83° East 228 262 5,700 -1,560 Descending Los Angeles Center
01:26AM 33.9936 -118.2908 138° Southeast 197 227 3,500 -2,100 Descending Los Angeles Center
01:27AM 33.9606 -118.3197 216° Southwest 182 209 1,500 -1,440 Descending Los Angeles Center
01:28AM 33.9564 -118.3753 265° West 152 175 600 -660 Descending Los Angeles Center
01:29AM 33.9511 -118.4128 260° West 143 165 200 -420 Descending Los Angeles Center
01:31AM 33.9425 -118.4081 228° Southwest  Level Estimated